createdAt,value
2019-06-01T00:00:54.435Z,92.30
2019-06-01T00:03:25.634Z,92.60
2019-06-01T00:05:56.012Z,93.00
2019-06-01T00:08:26.310Z,94.40
2019-06-01T00:10:56.671Z,94.20
2019-06-01T00:13:27.016Z,94.20
2019-06-01T00:15:57.323Z,94.30
2019-06-01T00:18:27.656Z,94.40
2019-06-01T00:20:57.972Z,94.80
2019-06-01T00:23:28.322Z,94.70
2019-06-01T00:25:58.794Z,95.00
2019-06-01T00:28:29.196Z,95.20
2019-06-01T00:31:00.070Z,95.10
2019-06-01T00:33:30.475Z,94.90
2019-06-01T00:36:00.871Z,94.80
2019-06-01T00:38:31.198Z,94.90
2019-06-01T00:41:01.696Z,94.90
2019-06-01T00:43:32.499Z,94.80
2019-06-01T00:46:04.442Z,95.00
2019-06-01T00:48:34.751Z,94.90
2019-06-01T00:51:05.088Z,95.30
2019-06-01T00:53:35.399Z,95.40
2019-06-01T00:56:05.719Z,95.20
2019-06-01T00:58:36.041Z,95.30
2019-06-01T01:01:06.352Z,95.40
2019-06-01T01:03:36.676Z,95.70
2019-06-01T01:06:06.996Z,95.90
2019-06-01T01:08:37.423Z,95.90
2019-06-01T01:11:07.730Z,96.40
2019-06-01T01:13:38.065Z,96.10
2019-06-01T01:16:08.383Z,96.10
2019-06-01T01:18:38.722Z,96.30
2019-06-01T01:21:09.025Z,96.70
2019-06-01T01:23:39.346Z,96.70
2019-06-01T01:26:09.732Z,96.40
2019-06-01T01:28:40.082Z,96.70
2019-06-01T01:31:13.708Z,96.70
2019-06-01T01:33:42.447Z,96.90
2019-06-01T01:36:12.768Z,97.00
2019-06-01T01:38:43.111Z,97.30
2019-06-01T01:41:13.424Z,97.00
2019-06-01T01:43:43.788Z,97.40
2019-06-01T01:46:14.077Z,97.30
2019-06-01T01:48:44.410Z,97.20
2019-06-01T01:51:14.714Z,97.30
2019-06-01T01:53:45.043Z,97.20
2019-06-01T01:56:15.364Z,97.40
2019-06-01T01:58:45.708Z,97.30
2019-06-01T02:01:22.663Z,97.60
2019-06-01T02:03:47.985Z,97.60
2019-06-01T02:06:18.288Z,97.70
2019-06-01T02:08:48.623Z,97.70
2019-06-01T02:11:18.931Z,97.80
2019-06-01T02:13:53.620Z,98.00
2019-06-01T02:16:24.029Z,98.00
2019-06-01T02:18:55.621Z,98.10
2019-06-01T02:21:26.296Z,98.30
2019-06-01T02:23:56.952Z,98.30
2019-06-01T02:26:27.340Z,98.30
2019-06-01T02:28:57.711Z,98.60
2019-06-01T02:31:40.995Z,98.50
2019-06-01T02:34:01.495Z,98.60
2019-06-01T02:36:32.175Z,98.50
2019-06-01T02:39:03.229Z,98.70
2019-06-01T02:41:34.628Z,98.60
2019-06-01T02:44:06.376Z,98.70
2019-06-01T02:46:36.913Z,99.20
2019-06-01T02:49:07.256Z,99.90
2019-06-01T02:51:37.612Z,99.50
2019-06-01T02:54:07.942Z,99.30
2019-06-01T02:56:38.243Z,99.40
2019-06-01T02:59:08.578Z,99.50
2019-06-01T03:01:39.180Z,99.30
2019-06-01T03:04:10.554Z,99.30
2019-06-01T03:06:44.223Z,99.30
2019-06-01T03:09:14.672Z,99.40
2019-06-01T03:11:46.956Z,99.60
2019-06-01T03:14:19.787Z,99.80
2019-06-01T03:16:52.148Z,99.70
2019-06-01T03:19:24.656Z,99.60
2019-06-01T03:21:58.003Z,99.40
2019-06-01T03:24:28.330Z,99.50
2019-06-01T03:27:00.248Z,99.40
2019-06-01T03:29:33.584Z,99.30
2019-06-01T03:32:26.172Z,99.40
2019-06-01T03:34:35.910Z,99.50
2019-06-01T03:37:07.192Z,99.40
2019-06-01T03:39:37.578Z,99.30
2019-06-01T03:42:08.068Z,99.50
2019-06-01T03:44:38.708Z,99.40
2019-06-01T03:47:09.734Z,99.30
2019-06-01T03:49:40.217Z,99.40
2019-06-01T03:52:10.469Z,99.40
2019-06-01T03:54:40.812Z,99.40
2019-06-01T03:57:11.281Z,99.60
2019-06-01T03:59:41.692Z,99.90
2019-06-01T04:02:12.152Z,99.90
2019-06-01T04:04:42.498Z,99.90
2019-06-01T04:07:12.847Z,99.90
2019-06-01T04:09:43.226Z,99.90
2019-06-01T04:12:13.531Z,99.90
2019-06-01T04:14:43.874Z,99.90
2019-06-01T04:17:14.245Z,99.90
2019-06-01T04:19:44.573Z,99.90
2019-06-01T04:22:14.900Z,99.90
2019-06-01T04:24:45.253Z,99.90
2019-06-01T04:27:15.576Z,99.80
2019-06-01T04:29:45.946Z,99.90
2019-06-01T04:32:16.323Z,99.80
2019-06-01T04:34:46.669Z,99.70
2019-06-01T04:37:16.971Z,99.80
2019-06-01T04:39:47.304Z,99.80
2019-06-01T04:42:17.621Z,99.70
2019-06-01T04:44:47.969Z,99.60
2019-06-01T04:47:18.308Z,99.60
2019-06-01T04:49:48.729Z,99.90
2019-06-01T04:52:19.070Z,99.90
2019-06-01T04:54:49.378Z,99.90
2019-06-01T04:57:19.727Z,99.90
2019-06-01T04:59:50.063Z,99.90
2019-06-01T05:02:20.378Z,99.90
2019-06-01T05:04:50.732Z,99.70
2019-06-01T05:07:21.068Z,99.90
2019-06-01T05:09:51.375Z,99.90
2019-06-01T05:12:21.703Z,99.90
2019-06-01T05:14:53.126Z,99.90
2019-06-01T05:17:23.460Z,99.90
2019-06-01T05:19:53.816Z,99.90
2019-06-01T05:22:24.148Z,99.90
2019-06-01T05:24:54.466Z,99.90
2019-06-01T05:27:24.796Z,99.80
2019-06-01T05:29:55.141Z,99.50
2019-06-01T05:32:25.487Z,99.30
2019-06-01T05:34:55.788Z,99.00
2019-06-01T05:37:26.145Z,98.90
2019-06-01T05:39:56.455Z,98.60
2019-06-01T05:42:26.797Z,98.40
2019-06-01T05:44:57.101Z,98.20
2019-06-01T05:47:27.469Z,97.90
2019-06-01T05:49:57.800Z,97.70
2019-06-01T05:52:28.136Z,97.50
2019-06-01T05:54:58.453Z,97.30
2019-06-01T05:57:28.816Z,97.00
2019-06-01T05:59:59.125Z,97.00
2019-06-01T06:02:29.471Z,96.70
2019-06-01T06:04:59.807Z,96.70
2019-06-01T06:07:30.159Z,96.40
2019-06-01T06:10:00.481Z,96.20
2019-06-01T06:12:30.830Z,96.20
2019-06-01T06:15:01.150Z,96.10
2019-06-01T06:17:31.533Z,96.10
2019-06-01T06:20:01.850Z,96.00
2019-06-01T06:22:32.219Z,95.90
2019-06-01T06:25:02.674Z,95.70
2019-06-01T06:27:33.085Z,95.50
2019-06-01T06:30:03.653Z,95.40
2019-06-01T06:32:33.984Z,95.20
2019-06-01T06:35:04.895Z,94.90
2019-06-01T06:37:35.254Z,94.80
2019-06-01T06:40:06.781Z,94.60
2019-06-01T06:42:37.149Z,94.40
2019-06-01T06:45:08.145Z,94.10
2019-06-01T06:47:38.518Z,93.90
2019-06-01T06:50:10.344Z,93.90
2019-06-01T06:52:40.719Z,93.70
2019-06-01T06:55:11.999Z,93.80
2019-06-01T06:57:42.398Z,93.50
2019-06-01T07:00:13.439Z,93.30
2019-06-01T07:02:43.794Z,93.10
2019-06-01T07:05:14.186Z,92.80
2019-06-01T07:07:44.509Z,92.70
2019-06-01T07:10:14.981Z,92.60
2019-06-01T07:12:45.282Z,92.50
2019-06-01T07:15:15.624Z,91.60
2019-06-01T07:17:45.963Z,91.30
2019-06-01T07:20:16.279Z,91.00
2019-06-01T07:22:46.631Z,91.20
2019-06-01T07:25:17.155Z,91.20
2019-06-01T07:27:47.485Z,91.50
2019-06-01T07:30:18.023Z,91.20
2019-06-01T07:32:48.652Z,90.40
2019-06-01T07:35:20.391Z,89.80
2019-06-01T07:37:50.850Z,88.70
2019-06-01T07:40:22.820Z,88.40
2019-06-01T07:42:53.286Z,88.40
2019-06-01T07:45:24.776Z,89.10
2019-06-01T07:47:55.156Z,89.80
2019-06-01T07:50:25.992Z,89.50
2019-06-01T07:52:57.455Z,88.70
2019-06-01T07:55:27.792Z,88.40
2019-06-01T07:57:58.128Z,88.40
2019-06-01T08:00:29.022Z,87.40
2019-06-01T08:02:59.505Z,84.80
2019-06-01T08:05:30.226Z,84.70
2019-06-01T08:08:00.578Z,84.30
2019-06-01T08:10:31.636Z,84.00
2019-06-01T08:13:02.064Z,83.90
2019-06-01T08:15:32.406Z,83.20
2019-06-01T08:18:02.727Z,82.40
2019-06-01T08:20:33.191Z,81.50
2019-06-01T08:23:03.605Z,81.50
2019-06-01T08:25:35.181Z,81.70
2019-06-01T08:28:05.643Z,81.00
2019-06-01T08:30:36.027Z,80.10
2019-06-01T08:33:06.434Z,79.60
2019-06-01T08:35:36.880Z,79.40
2019-06-01T08:38:07.256Z,78.90
2019-06-01T08:40:37.579Z,78.50
2019-06-01T08:43:07.891Z,78.50
2019-06-01T08:45:38.227Z,79.10
2019-06-01T08:48:08.532Z,78.50
2019-06-01T08:50:38.894Z,78.70
2019-06-01T08:53:12.018Z,78.80
2019-06-01T08:55:42.373Z,76.50
2019-06-01T08:58:12.692Z,75.50
2019-06-01T09:00:43.030Z,74.80
2019-06-01T09:03:13.343Z,74.10
2019-06-01T09:05:43.680Z,72.60
2019-06-01T09:08:13.997Z,71.30
2019-06-01T09:10:45.007Z,70.00
2019-06-01T09:13:15.340Z,69.10
2019-06-01T09:15:45.671Z,68.20
2019-06-01T09:18:18.931Z,66.90
2019-06-01T09:20:49.279Z,67.80
2019-06-01T09:23:19.602Z,66.60
2019-06-01T09:25:49.943Z,65.40
2019-06-01T09:28:20.282Z,64.80
2019-06-01T09:30:54.567Z,63.50
2019-06-01T09:33:25.985Z,60.60
2019-06-01T09:35:57.554Z,59.40
2019-06-01T09:38:27.812Z,59.60
2019-06-01T09:40:58.173Z,58.00
2019-06-01T09:43:28.659Z,58.70
2019-06-01T09:45:59.022Z,59.30
2019-06-01T09:48:29.457Z,60.40
2019-06-01T09:50:59.801Z,61.10
2019-06-01T09:53:31.060Z,60.60
2019-06-01T09:56:02.064Z,57.60
2019-06-01T09:58:32.372Z,57.70
2019-06-01T10:01:02.715Z,56.80
2019-06-01T10:03:34.390Z,54.70
2019-06-01T10:06:04.936Z,54.50
2019-06-01T10:08:36.147Z,54.40
2019-06-01T10:11:06.685Z,54.40
2019-06-01T10:13:38.258Z,52.70
2019-06-01T10:16:08.759Z,51.90
2019-06-01T10:18:39.156Z,51.30
2019-06-01T10:21:10.694Z,51.30
2019-06-01T10:23:42.598Z,51.10
2019-06-01T10:26:13.077Z,50.80
2019-06-01T10:28:43.732Z,49.60
2019-06-01T10:31:14.097Z,49.00
2019-06-01T10:33:44.392Z,49.20
2019-06-01T10:36:20.693Z,47.70
2019-06-01T10:38:46.769Z,48.30
2019-06-01T10:41:17.207Z,47.70
2019-06-01T10:43:47.535Z,49.20
2019-06-01T10:46:17.928Z,50.00
2019-06-01T10:48:48.259Z,50.10
2019-06-01T10:51:18.567Z,49.00
2019-06-01T10:53:48.881Z,46.90
2019-06-01T10:56:19.246Z,47.20
2019-06-01T10:58:59.950Z,45.80
2019-06-01T11:01:22.691Z,46.30
2019-06-01T11:03:52.997Z,45.90
2019-06-01T11:06:36.679Z,46.10
2019-06-01T11:08:56.362Z,47.40
2019-06-01T11:11:26.665Z,47.20
2019-06-01T11:13:57.207Z,46.30
2019-06-01T11:16:27.591Z,44.90
2019-06-01T11:18:57.933Z,43.80
2019-06-01T11:21:28.258Z,42.80
2019-06-01T11:23:58.953Z,40.90
2019-06-01T11:26:29.658Z,39.10
2019-06-01T11:29:07.274Z,39.10
2019-06-01T11:31:38.325Z,37.90
2019-06-01T11:34:08.759Z,36.20
2019-06-01T11:36:58.550Z,36.60
2019-06-01T11:39:12.033Z,34.70
2019-06-01T11:42:02.758Z,33.60
2019-06-01T11:44:34.692Z,33.70
2019-06-01T11:47:05.632Z,33.20
2019-06-01T11:49:36.632Z,33.00
2019-06-01T11:52:07.025Z,31.70
2019-06-01T11:54:37.434Z,31.30
2019-06-01T11:57:07.773Z,30.40
2019-06-01T11:59:39.327Z,29.80
2019-06-01T12:02:10.197Z,29.70
2019-06-01T12:04:41.941Z,29.10
2019-06-01T12:07:17.496Z,29.60
2019-06-01T12:09:46.061Z,29.50
2019-06-01T12:12:16.530Z,29.00
2019-06-01T12:14:46.933Z,27.90
2019-06-01T12:17:17.483Z,27.20
2019-06-01T12:19:48.240Z,26.40
2019-06-01T12:22:18.583Z,26.60
2019-06-01T12:24:49.300Z,26.70
2019-06-01T12:27:20.236Z,25.90
2019-06-01T12:29:52.621Z,25.90
2019-06-01T12:32:22.555Z,25.70
2019-06-01T12:34:52.903Z,25.10
2019-06-01T12:37:39.896Z,25.50
2019-06-01T12:39:55.660Z,25.40
2019-06-01T12:42:27.292Z,26.20
2019-06-01T12:44:57.629Z,26.20
2019-06-01T12:47:29.813Z,25.70
2019-06-01T12:50:01.691Z,24.90
2019-06-01T12:52:33.891Z,25.20
2019-06-01T12:55:05.572Z,25.10
2019-06-01T12:57:36.846Z,24.30
2019-06-01T13:00:08.261Z,23.80
2019-06-01T13:02:40.144Z,23.70
2019-06-01T13:05:11.501Z,23.20
2019-06-01T13:07:54.349Z,23.40
2019-06-01T13:10:13.825Z,23.60
2019-06-01T13:12:45.183Z,23.60
2019-06-01T13:15:16.498Z,23.20
2019-06-01T13:17:47.413Z,22.80
2019-06-01T13:20:17.972Z,22.80
2019-06-01T13:22:49.886Z,23.20
2019-06-01T13:25:20.724Z,24.40
2019-06-01T13:27:52.463Z,24.30
2019-06-01T13:30:22.898Z,23.80
2019-06-01T13:32:53.546Z,23.30
2019-06-01T13:35:23.914Z,22.50
2019-06-01T13:38:10.932Z,23.50
2019-06-01T13:40:28.780Z,23.70
2019-06-01T13:42:59.214Z,22.80
2019-06-01T13:45:29.920Z,22.80
2019-06-01T13:48:00.760Z,22.60
2019-06-01T13:50:31.126Z,22.50
2019-06-01T13:53:01.803Z,22.90
2019-06-01T13:55:32.277Z,22.70
2019-06-01T13:58:02.715Z,23.50
2019-06-01T14:00:33.038Z,23.40
2019-06-01T14:03:03.468Z,23.80
2019-06-01T14:05:33.784Z,23.80
2019-06-01T14:08:04.420Z,23.70
2019-06-01T14:10:35.060Z,22.50
2019-06-01T14:13:06.012Z,22.00
2019-06-01T14:15:36.368Z,21.60
2019-06-01T14:18:07.202Z,21.80
2019-06-01T14:20:38.072Z,22.10
2019-06-01T14:23:09.187Z,22.80
2019-06-01T14:25:40.209Z,22.50
2019-06-01T14:28:11.165Z,22.00
2019-06-01T14:30:42.176Z,22.10
2019-06-01T14:33:13.249Z,21.70
2019-06-01T14:35:44.054Z,21.70
2019-06-01T14:38:16.700Z,21.80
2019-06-01T14:40:48.837Z,22.20
2019-06-01T14:43:19.842Z,21.80
2019-06-01T14:45:51.556Z,21.30
2019-06-01T14:48:22.582Z,21.10
2019-06-01T14:50:53.818Z,21.00
2019-06-01T14:53:24.462Z,21.90
2019-06-01T14:55:55.780Z,21.40
2019-06-01T14:58:26.473Z,21.60
2019-06-01T15:00:58.500Z,22.00
2019-06-01T15:03:29.428Z,21.40
2019-06-01T15:05:59.886Z,20.80
2019-06-01T15:08:30.227Z,21.00
2019-06-01T15:11:00.593Z,21.10
2019-06-01T15:13:31.094Z,21.70
2019-06-01T15:16:02.032Z,21.90
2019-06-01T15:18:32.605Z,21.40
2019-06-01T15:21:03.915Z,21.20
2019-06-01T15:23:34.269Z,20.90
2019-06-01T15:26:04.627Z,20.20
2019-06-01T15:28:34.975Z,20.60
2019-06-01T15:31:05.418Z,19.80
2019-06-01T15:33:35.742Z,19.90
2019-06-01T15:36:06.054Z,20.20
2019-06-01T15:38:36.613Z,20.70
2019-06-01T15:41:06.886Z,20.30
2019-06-01T15:43:37.240Z,20.40
2019-06-01T15:46:07.550Z,20.10
2019-06-01T15:48:37.893Z,20.10
2019-06-01T15:51:08.816Z,20.10
2019-06-01T15:53:39.636Z,20.30
2019-06-01T15:56:10.108Z,20.10
2019-06-01T15:58:52.388Z,20.30
2019-06-01T16:01:12.736Z,20.20
2019-06-01T16:03:43.378Z,20.30
2019-06-01T16:06:13.687Z,20.70
2019-06-01T16:08:44.267Z,21.00
2019-06-01T16:11:14.802Z,21.00
2019-06-01T16:13:45.287Z,21.10
2019-06-01T16:16:15.606Z,20.70
2019-06-01T16:18:46.365Z,20.60
2019-06-01T16:21:17.859Z,20.60
2019-06-01T16:23:50.371Z,20.70
2019-06-01T16:26:20.518Z,20.20
2019-06-01T16:28:50.991Z,20.40
2019-06-01T16:31:21.336Z,20.50
2019-06-01T16:33:56.555Z,20.70
2019-06-01T16:36:29.873Z,21.20
2019-06-01T16:39:03.614Z,20.90
2019-06-01T16:41:33.932Z,20.80
2019-06-01T16:44:05.770Z,20.90
2019-06-01T16:46:36.288Z,20.70
2019-06-01T16:49:06.724Z,21.20
2019-06-01T16:51:58.736Z,20.60
2019-06-01T16:54:29.344Z,21.10
2019-06-01T16:57:00.317Z,20.80
2019-06-01T16:59:30.640Z,21.20
2019-06-01T17:02:01.123Z,21.40
2019-06-01T17:04:31.627Z,21.50
2019-06-01T17:07:05.026Z,21.30
2019-06-01T17:09:34.004Z,21.60
2019-06-01T17:12:05.248Z,21.30
2019-06-01T17:14:35.579Z,21.50
2019-06-01T17:17:07.489Z,21.40
2019-06-01T17:19:37.908Z,21.50
2019-06-01T17:22:08.306Z,21.50
2019-06-01T17:24:38.727Z,21.50
2019-06-01T17:27:09.056Z,21.70
2019-06-01T17:29:39.441Z,21.80
2019-06-01T17:32:23.623Z,21.90
2019-06-01T17:34:41.689Z,22.10
2019-06-01T17:37:12.016Z,22.10
2019-06-01T17:39:42.358Z,22.00
2019-06-01T17:42:12.839Z,22.20
2019-06-01T17:44:43.316Z,22.60
2019-06-01T17:47:13.605Z,22.60
2019-06-01T17:49:44.072Z,23.00
2019-06-01T17:52:14.367Z,23.20
2019-06-01T17:54:44.712Z,23.30
2019-06-01T17:57:15.119Z,23.50
2019-06-01T17:59:45.603Z,23.60
2019-06-01T18:02:16.265Z,23.80
2019-06-01T18:04:46.642Z,23.50
2019-06-01T18:07:16.975Z,23.70
2019-06-01T18:09:47.685Z,24.00
2019-06-01T18:12:18.030Z,24.40
2019-06-01T18:14:48.372Z,24.90
2019-06-01T18:17:18.685Z,25.10
2019-06-01T18:19:49.040Z,25.20
2019-06-01T18:22:19.541Z,25.40
2019-06-01T18:24:49.927Z,25.70
2019-06-01T18:27:20.475Z,26.00
2019-06-01T18:29:50.860Z,26.50
2019-06-01T18:32:21.271Z,26.00
2019-06-01T18:34:51.812Z,26.30
2019-06-01T18:37:23.789Z,26.50
2019-06-01T18:39:55.596Z,27.00
2019-06-01T18:42:30.986Z,27.40
2019-06-01T18:45:01.350Z,27.70
2019-06-01T18:47:32.765Z,28.00
2019-06-01T18:50:04.107Z,28.50
2019-06-01T18:52:36.025Z,28.90
2019-06-01T18:55:10.443Z,29.30
2019-06-01T18:57:41.894Z,29.90
2019-06-01T19:00:15.475Z,30.70
2019-06-01T19:02:48.152Z,31.70
2019-06-01T19:05:19.659Z,32.40
2019-06-01T19:07:50.111Z,33.40
2019-06-01T19:10:20.874Z,34.30
2019-06-01T19:12:51.207Z,35.40
2019-06-01T19:15:28.664Z,36.20
2019-06-01T19:17:53.996Z,37.10
2019-06-01T19:20:24.467Z,37.90
2019-06-01T19:22:54.933Z,38.90
2019-06-01T19:25:25.289Z,39.80
2019-06-01T19:27:59.793Z,40.00
2019-06-01T19:30:39.064Z,40.90
2019-06-01T19:33:14.272Z,41.20
2019-06-01T19:35:42.859Z,41.70
2019-06-01T19:38:13.436Z,42.30
2019-06-01T19:40:54.740Z,42.30
2019-06-01T19:43:17.551Z,43.10
2019-06-01T19:45:53.850Z,43.20
2019-06-01T19:48:53.488Z,43.60
2019-06-01T19:51:41.253Z,44.60
2019-06-01T19:54:14.907Z,44.10
2019-06-01T19:56:43.953Z,44.00
2019-06-01T19:59:15.963Z,44.70
2019-06-01T20:01:46.846Z,44.90
2019-06-01T20:04:20.027Z,45.10
2019-06-01T20:06:50.502Z,45.20
2019-06-01T20:09:21.320Z,45.60
2019-06-01T20:12:01.556Z,45.70
2019-06-01T20:14:23.677Z,46.40
2019-06-01T20:16:55.199Z,47.20
2019-06-01T20:19:25.539Z,47.60
2019-06-01T20:21:55.845Z,47.80
2019-06-01T20:24:26.898Z,48.00
2019-06-01T20:26:57.221Z,48.50
2019-06-01T20:29:27.591Z,49.10
2019-06-01T20:31:58.095Z,49.30
2019-06-01T20:34:28.455Z,49.40
2019-06-01T20:37:00.850Z,49.30
2019-06-01T20:39:31.495Z,49.50
2019-06-01T20:42:17.281Z,49.80
2019-06-01T20:44:34.181Z,50.00
2019-06-01T20:47:04.720Z,50.20
2019-06-01T20:49:35.259Z,50.60
2019-06-01T20:52:05.641Z,50.80
2019-06-01T20:54:36.445Z,50.90
2019-06-01T20:57:09.086Z,51.40
2019-06-01T20:59:41.067Z,51.70
2019-06-01T21:02:11.447Z,52.10
2019-06-01T21:04:43.561Z,52.40
2019-06-01T21:07:13.910Z,52.90
2019-06-01T21:09:44.321Z,53.10
2019-06-01T21:12:16.292Z,53.50
2019-06-01T21:14:46.691Z,53.70
2019-06-01T21:17:18.473Z,54.30
2019-06-01T21:19:49.764Z,54.30
2019-06-01T21:22:20.662Z,54.70
2019-06-01T21:24:52.011Z,55.00
2019-06-01T21:27:22.707Z,55.40
2019-06-01T21:29:53.182Z,56.60
2019-06-01T21:32:23.691Z,56.60
2019-06-01T21:34:54.077Z,56.60
2019-06-01T21:37:24.422Z,56.90
2019-06-01T21:39:54.793Z,57.30
2019-06-01T21:42:27.902Z,57.90
2019-06-01T21:44:59.392Z,58.50
2019-06-01T21:47:30.370Z,59.00
2019-06-01T21:50:00.747Z,59.70
2019-06-01T21:52:31.152Z,60.00
2019-06-01T21:55:01.582Z,61.30
2019-06-01T21:57:33.710Z,62.20
2019-06-01T22:00:06.935Z,63.40
2019-06-01T22:02:38.950Z,63.90
2019-06-01T22:05:09.940Z,64.50
2019-06-01T22:07:40.397Z,66.30
2019-06-01T22:10:10.973Z,67.70
2019-06-01T22:12:41.291Z,68.40
2019-06-01T22:15:11.733Z,70.90
2019-06-01T22:17:42.082Z,71.20
2019-06-01T22:20:13.720Z,72.20
2019-06-01T22:22:44.074Z,73.00
2019-06-01T22:25:14.503Z,74.80
2019-06-01T22:27:44.850Z,76.00
2019-06-01T22:30:15.401Z,76.30
2019-06-01T22:32:45.743Z,77.50
2019-06-01T22:35:16.155Z,77.90
2019-06-01T22:37:47.492Z,78.90
2019-06-01T22:40:19.356Z,79.40
2019-06-01T22:42:49.812Z,79.50
2019-06-01T22:45:20.149Z,80.00
2019-06-01T22:47:50.686Z,80.90
2019-06-01T22:50:22.735Z,81.50
2019-06-01T22:52:53.155Z,81.90
2019-06-01T22:55:24.313Z,82.70
2019-06-01T22:57:54.709Z,84.20
2019-06-01T23:00:25.813Z,84.60
2019-06-01T23:02:56.231Z,85.70
2019-06-01T23:05:27.059Z,85.90
2019-06-01T23:07:57.465Z,86.30
2019-06-01T23:10:33.118Z,86.90
2019-06-01T23:13:00.534Z,87.20
2019-06-01T23:15:31.937Z,87.80
2019-06-01T23:18:02.455Z,88.20
2019-06-01T23:20:33.054Z,88.70
2019-06-01T23:23:03.503Z,88.60
2019-06-01T23:25:33.815Z,88.70
2019-06-01T23:28:04.172Z,88.70
2019-06-01T23:30:34.483Z,90.10
2019-06-01T23:33:05.208Z,91.00
2019-06-01T23:35:35.507Z,91.20
2019-06-01T23:38:05.863Z,91.10
2019-06-01T23:40:36.522Z,91.10
2019-06-01T23:43:06.920Z,91.40
2019-06-01T23:45:37.218Z,91.50
2019-06-01T23:48:07.682Z,92.20
2019-06-01T23:50:38.048Z,91.90
2019-06-01T23:53:13.609Z,91.70
2019-06-01T23:55:40.317Z,92.00
2019-06-01T23:58:10.831Z,92.50
